createdAt,value
2023-04-11T00:00:41.604Z,10.90
2023-04-11T00:06:07.665Z,10.88
2023-04-11T00:11:31.616Z,10.85
2023-04-11T00:17:00.612Z,10.79
2023-04-11T00:22:27.044Z,10.79
2023-04-11T00:27:51.618Z,10.70
2023-04-11T00:33:18.669Z,10.57
2023-04-11T00:38:43.634Z,10.39
2023-04-11T00:44:09.020Z,10.09
2023-04-11T00:49:39.043Z,9.85
2023-04-11T00:55:03.639Z,9.63
2023-04-11T01:00:29.638Z,9.50
2023-04-11T01:05:58.664Z,9.29
2023-04-11T01:11:27.644Z,9.17
2023-04-11T01:16:53.690Z,9.02
2023-04-11T01:22:24.662Z,8.88
2023-04-11T01:27:51.684Z,8.87
2023-04-11T01:33:17.656Z,8.79
2023-04-11T01:38:41.736Z,8.75
2023-04-11T01:44:09.820Z,8.71
2023-04-11T01:49:35.671Z,8.68
2023-04-11T01:55:01.688Z,8.64
2023-04-11T02:00:33.705Z,8.62
2023-04-11T02:05:59.705Z,8.59
2023-04-11T02:11:24.712Z,8.58
2023-04-11T02:17:02.800Z,8.56
2023-04-11T02:22:27.674Z,8.50
2023-04-11T02:27:52.704Z,8.49
2023-04-11T02:33:20.703Z,8.46
2023-04-11T02:38:45.678Z,8.44
2023-04-11T02:44:09.722Z,8.47
2023-04-11T02:49:38.680Z,8.44
2023-04-11T02:55:07.689Z,8.44
2023-04-11T03:00:32.799Z,8.45
2023-04-11T03:06:03.722Z,8.45
2023-04-11T03:11:29.723Z,8.46
2023-04-11T03:16:55.723Z,8.51
2023-04-11T03:22:26.682Z,8.42
2023-04-11T03:27:52.727Z,8.42
2023-04-11T03:33:18.702Z,8.40
2023-04-11T03:38:45.742Z,8.39
2023-04-11T03:44:12.721Z,8.35
2023-04-11T03:49:38.743Z,8.30
2023-04-11T03:55:09.739Z,8.22
2023-04-11T04:00:35.763Z,8.23
2023-04-11T04:06:00.743Z,8.16
2023-04-11T04:11:28.752Z,8.18
2023-04-11T04:22:40.486Z,8.17
2023-04-11T04:28:16.738Z,8.15
2023-04-11T04:39:48.739Z,8.10
2023-04-11T04:45:21.750Z,8.10
2023-04-11T04:50:47.830Z,8.07
2023-04-11T04:56:12.820Z,8.14
2023-04-11T05:01:46.858Z,8.11
2023-04-11T05:07:20.406Z,8.05
2023-04-11T05:12:47.844Z,8.06
2023-04-11T05:18:15.779Z,8.04
2023-04-11T05:23:39.771Z,8.02
2023-04-11T05:29:04.792Z,7.97
2023-04-11T05:40:54.865Z,7.96
2023-04-11T05:46:22.869Z,7.95
2023-04-11T05:51:46.786Z,7.91
2023-04-11T05:57:13.833Z,7.84
2023-04-11T06:02:40.969Z,7.96
2023-04-11T06:08:06.801Z,7.95
2023-04-11T06:13:31.801Z,7.97
2023-04-11T06:19:05.812Z,7.96
2023-04-11T06:24:44.776Z,7.90
2023-04-11T06:30:08.803Z,7.95
2023-04-11T06:35:36.870Z,7.99
2023-04-11T06:41:02.788Z,7.99
2023-04-11T06:46:27.910Z,8.03
2023-04-11T06:51:56.832Z,8.05
2023-04-11T06:57:21.824Z,8.04
2023-04-11T07:02:46.045Z,8.06
2023-04-11T07:08:17.378Z,8.12
2023-04-11T07:13:42.939Z,8.18
2023-04-11T07:19:13.813Z,8.27
2023-04-11T07:24:49.822Z,8.35
2023-04-11T07:30:15.852Z,8.55
2023-04-11T07:35:40.846Z,8.68
2023-04-11T07:41:11.813Z,8.72
2023-04-11T07:46:35.854Z,8.79
2023-04-11T07:52:00.943Z,8.97
2023-04-11T07:57:29.041Z,9.21
2023-04-11T08:02:54.230Z,9.32
2023-04-11T08:08:18.836Z,9.39
2023-04-11T08:13:46.839Z,9.66
2023-04-11T08:19:10.871Z,9.64
2023-04-11T08:24:35.896Z,10.01
2023-04-11T08:30:02.999Z,10.15
2023-04-11T08:35:27.867Z,9.95
2023-04-11T08:40:52.878Z,9.65
2023-04-11T08:46:20.940Z,9.91
2023-04-11T08:51:44.972Z,10.50
2023-04-11T08:57:09.876Z,10.55
2023-04-11T09:02:37.933Z,10.26
2023-04-11T09:08:04.141Z,9.96
2023-04-11T09:13:36.882Z,10.04
2023-04-11T09:19:10.867Z,10.22
2023-04-11T09:24:37.018Z,10.39
2023-04-11T09:30:02.928Z,10.70
2023-04-11T09:35:34.925Z,10.89
2023-04-11T09:40:59.902Z,10.77
2023-04-11T09:46:24.885Z,11.21
2023-04-11T09:51:52.912Z,11.40
2023-04-11T09:57:17.892Z,11.35
2023-04-11T10:02:43.005Z,10.29
2023-04-11T10:08:14.957Z,9.02
2023-04-11T10:13:56.127Z,8.73
2023-04-11T10:19:49.042Z,8.25
2023-04-11T10:25:30.933Z,7.92
2023-04-11T10:31:10.937Z,8.00
2023-04-11T10:36:35.919Z,8.15
2023-04-11T10:42:02.924Z,8.33
2023-04-11T10:47:32.983Z,8.50
2023-04-11T10:52:56.926Z,8.73
2023-04-11T10:58:25.917Z,9.05
2023-04-11T11:03:51.177Z,9.54
2023-04-11T11:09:30.945Z,10.05
2023-04-11T11:15:00.921Z,9.46
2023-04-11T11:20:26.998Z,8.74
2023-04-11T11:25:51.960Z,8.14
2023-04-11T11:31:20.104Z,7.38
2023-04-11T11:36:44.977Z,7.33
2023-04-11T11:42:09.966Z,7.48
2023-04-11T11:47:37.000Z,7.65
2023-04-11T11:53:01.966Z,7.85
2023-04-11T11:58:25.953Z,8.28
2023-04-11T12:03:54.188Z,8.35
2023-04-11T12:09:19.986Z,8.86
2023-04-11T12:14:44.964Z,8.88
2023-04-11T12:20:14.992Z,9.22
2023-04-11T12:25:39.990Z,9.49
2023-04-11T12:31:04.012Z,9.81
2023-04-11T12:41:56.997Z,10.49
2023-04-11T12:47:22.049Z,10.87
2023-04-11T12:52:57.981Z,11.30
2023-04-11T12:58:23.011Z,11.51
2023-04-11T13:03:48.119Z,11.35
2023-04-11T13:09:16.021Z,11.57
2023-04-11T13:14:43.086Z,11.61
2023-04-11T13:20:07.996Z,11.83
2023-04-11T13:25:35.017Z,11.55
2023-04-11T13:31:00.028Z,11.01
2023-04-11T13:36:26.039Z,11.18
2023-04-11T13:41:54.023Z,10.85
2023-04-11T13:47:19.046Z,10.84
2023-04-11T13:52:44.008Z,10.99
2023-04-11T13:58:11.103Z,11.22
2023-04-11T14:03:40.102Z,11.58
2023-04-11T14:09:04.078Z,12.13
2023-04-11T14:14:32.062Z,12.27
2023-04-11T14:20:03.035Z,12.45
2023-04-11T14:25:29.040Z,12.52
2023-04-11T14:30:56.187Z,12.74
2023-04-11T14:36:21.390Z,12.10
2023-04-11T14:41:45.118Z,11.72
2023-04-11T14:47:13.090Z,11.46
2023-04-11T14:52:37.059Z,11.23
2023-04-11T14:58:04.051Z,10.91
2023-04-11T15:03:32.251Z,10.55
2023-04-11T15:08:57.149Z,11.16
2023-04-11T15:14:21.064Z,11.88
2023-04-11T15:19:55.087Z,12.11
2023-04-11T15:25:23.038Z,12.22
2023-04-11T15:30:47.080Z,12.16
2023-04-11T15:36:15.132Z,11.95
2023-04-11T15:41:39.203Z,11.65
2023-04-11T15:47:04.113Z,11.22
2023-04-11T15:52:31.078Z,10.83
2023-04-11T15:57:56.065Z,10.11
2023-04-11T16:03:23.381Z,9.10
2023-04-11T16:08:51.114Z,8.65
2023-04-11T16:14:16.110Z,8.58
2023-04-11T16:19:48.384Z,8.54
2023-04-11T16:25:17.120Z,8.52
2023-04-11T16:30:41.130Z,8.85
2023-04-11T16:36:06.109Z,9.59
2023-04-11T16:41:33.108Z,10.02
2023-04-11T16:46:58.207Z,10.30
2023-04-11T16:52:22.153Z,10.12
2023-04-11T16:57:50.494Z,9.69
2023-04-11T17:03:14.420Z,9.46
2023-04-11T17:08:39.110Z,9.65
2023-04-11T17:14:07.133Z,9.32
2023-04-11T17:19:32.129Z,9.01
2023-04-11T17:24:56.131Z,8.77
2023-04-11T17:30:26.163Z,8.55
2023-04-11T17:35:51.268Z,8.21
2023-04-11T17:41:17.520Z,7.97
2023-04-11T17:46:44.198Z,7.97
2023-04-11T17:52:09.159Z,8.06
2023-04-11T17:57:34.158Z,8.08
2023-04-11T18:03:10.245Z,8.02
2023-04-11T18:08:49.958Z,7.97
2023-04-11T18:14:16.145Z,8.04
2023-04-11T18:19:50.241Z,7.58
2023-04-11T18:25:16.291Z,6.91
2023-04-11T18:30:41.289Z,6.81
2023-04-11T18:36:09.211Z,6.91
2023-04-11T18:41:34.190Z,6.85
2023-04-11T18:47:01.416Z,6.71
2023-04-11T18:52:30.168Z,6.66
2023-04-11T18:57:57.950Z,6.57
2023-04-11T19:03:27.260Z,6.26
2023-04-11T19:08:55.198Z,6.23
2023-04-11T19:14:20.273Z,6.09
2023-04-11T19:19:52.599Z,6.23
2023-04-11T19:25:21.260Z,6.24
2023-04-11T19:30:46.174Z,6.04
2023-04-11T19:36:11.751Z,5.68
2023-04-11T19:41:38.196Z,5.49
2023-04-11T19:47:03.246Z,5.46
2023-04-11T19:52:28.210Z,5.32
2023-04-11T19:57:50.229Z,5.28
2023-04-11T20:03:21.429Z,5.11
2023-04-11T20:08:46.225Z,5.02
2023-04-11T20:14:14.212Z,4.99
2023-04-11T20:19:46.239Z,4.87
2023-04-11T20:25:11.262Z,4.71
2023-04-11T20:30:39.265Z,4.54
2023-04-11T20:36:05.291Z,4.56
2023-04-11T20:41:31.217Z,4.50
2023-04-11T20:47:00.233Z,4.41
2023-04-11T20:52:25.253Z,4.36
2023-04-11T20:57:51.301Z,4.25
2023-04-11T21:03:19.288Z,4.25
2023-04-11T21:08:45.242Z,4.26
2023-04-11T21:14:09.229Z,4.20
2023-04-11T21:19:43.284Z,4.17
2023-04-11T21:25:08.258Z,4.16
2023-04-11T21:30:32.276Z,4.17
2023-04-11T21:36:02.346Z,4.14
2023-04-11T21:41:26.252Z,4.13
2023-04-11T21:46:51.284Z,4.13
2023-04-11T21:52:18.270Z,4.13
2023-04-11T21:57:43.260Z,4.08
2023-04-11T22:03:08.557Z,3.98
2023-04-11T22:08:36.263Z,3.87
2023-04-11T22:14:01.269Z,3.86
2023-04-11T22:19:31.377Z,3.86
2023-04-11T22:24:59.329Z,3.84
2023-04-11T22:30:25.300Z,3.86
2023-04-11T22:35:50.293Z,3.87
2023-04-11T22:41:24.274Z,3.87
2023-04-11T22:46:49.285Z,3.88
2023-04-11T22:52:15.345Z,3.91
2023-04-11T22:57:43.330Z,3.93
2023-04-11T23:03:09.287Z,3.90
2023-04-11T23:08:35.302Z,3.89
2023-04-11T23:14:04.299Z,3.89
2023-04-11T23:19:28.310Z,3.83
2023-04-11T23:24:53.285Z,3.74
2023-04-11T23:30:21.270Z,3.70
2023-04-11T23:35:54.303Z,3.67
2023-04-11T23:41:19.322Z,3.70
2023-04-11T23:46:47.446Z,3.72
2023-04-11T23:52:12.284Z,3.73
2023-04-11T23:57:38.298Z,3.72
